sensor_id;sensor_type;location;lat;lon;timestamp;temperature;humidity
7192;DHT22;3637;51.494;11.958;2022-10-16T00:01:17;16.10;99.90
7192;DHT22;3637;51.494;11.958;2022-10-16T00:04:20;16.10;99.90
7192;DHT22;3637;51.494;11.958;2022-10-16T00:07:22;16.10;99.90
7192;DHT22;3637;51.494;11.958;2022-10-16T00:10:24;16.20;99.90
7192;DHT22;3637;51.494;11.958;2022-10-16T00:13:27;16.20;99.90
7192;DHT22;3637;51.494;11.958;2022-10-16T00:16:29;16.30;99.90
7192;DHT22;3637;51.494;11.958;2022-10-16T00:19:32;16.30;99.90
7192;DHT22;3637;51.494;11.958;2022-10-16T00:22:34;16.20;99.90
7192;DHT22;3637;51.494;11.958;2022-10-16T00:25:36;16.20;99.90
7192;DHT22;3637;51.494;11.958;2022-10-16T00:28:38;16.20;99.90
7192;DHT22;3637;51.494;11.958;2022-10-16T00:31:40;16.20;99.90
7192;DHT22;3637;51.494;11.958;2022-10-16T00:34:43;16.20;99.90
7192;DHT22;3637;51.494;11.958;2022-10-16T00:37:45;16.20;99.90
7192;DHT22;3637;51.494;11.958;2022-10-16T00:40:47;16.20;99.90
7192;DHT22;3637;51.494;11.958;2022-10-16T00:43:51;16.20;99.90
7192;DHT22;3637;51.494;11.958;2022-10-16T00:46:53;16.20;99.90
7192;DHT22;3637;51.494;11.958;2022-10-16T00:50:00;16.20;99.90
7192;DHT22;3637;51.494;11.958;2022-10-16T00:53:03;16.20;99.90
7192;DHT22;3637;51.494;11.958;2022-10-16T00:56:06;16.20;99.90
7192;DHT22;3637;51.494;11.958;2022-10-16T00:59:15;16.20;99.90
7192;DHT22;3637;51.494;11.958;2022-10-16T01:02:17;16.20;99.90
7192;DHT22;3637;51.494;11.958;2022-10-16T01:05:21;16.10;99.90
7192;DHT22;3637;51.494;11.958;2022-10-16T01:08:29;16.10;99.90
7192;DHT22;3637;51.494;11.958;2022-10-16T01:11:41;16.00;99.90
7192;DHT22;3637;51.494;11.958;2022-10-16T01:14:48;16.00;99.90
7192;DHT22;3637;51.494;11.958;2022-10-16T01:17:58;16.00;99.90
7192;DHT22;3637;51.494;11.958;2022-10-16T01:21:05;15.90;99.90
7192;DHT22;3637;51.494;11.958;2022-10-16T01:24:14;15.90;99.90
7192;DHT22;3637;51.494;11.958;2022-10-16T01:27:22;15.80;99.90
7192;DHT22;3637;51.494;11.958;2022-10-16T01:30:29;15.70;99.90
7192;DHT22;3637;51.494;11.958;2022-10-16T01:33:35;15.60;99.90
7192;DHT22;3637;51.494;11.958;2022-10-16T01:36:42;15.60;99.90
7192;DHT22;3637;51.494;11.958;2022-10-16T01:39:48;15.90;99.90
7192;DHT22;3637;51.494;11.958;2022-10-16T01:42:55;15.70;99.90
7192;DHT22;3637;51.494;11.958;2022-10-16T01:46:00;15.40;99.90
7192;DHT22;3637;51.494;11.958;2022-10-16T01:49:03;15.40;99.90
7192;DHT22;3637;51.494;11.958;2022-10-16T01:52:09;15.30;99.90
7192;DHT22;3637;51.494;11.958;2022-10-16T01:55:17;15.30;99.90
7192;DHT22;3637;51.494;11.958;2022-10-16T01:58:22;15.20;99.90
7192;DHT22;3637;51.494;11.958;2022-10-16T02:01:27;15.20;99.90
7192;DHT22;3637;51.494;11.958;2022-10-16T02:04:33;15.30;99.90
7192;DHT22;3637;51.494;11.958;2022-10-16T02:07:35;15.20;99.90
7192;DHT22;3637;51.494;11.958;2022-10-16T02:10:38;15.30;99.90
7192;DHT22;3637;51.494;11.958;2022-10-16T02:13:45;15.40;99.90
7192;DHT22;3637;51.494;11.958;2022-10-16T02:16:48;15.30;99.90
7192;DHT22;3637;51.494;11.958;2022-10-16T02:19:52;15.30;99.90
7192;DHT22;3637;51.494;11.958;2022-10-16T02:22:56;15.30;99.90
7192;DHT22;3637;51.494;11.958;2022-10-16T02:25:58;15.30;99.90
7192;DHT22;3637;51.494;11.958;2022-10-16T02:29:06;15.50;99.90
7192;DHT22;3637;51.494;11.958;2022-10-16T02:32:10;15.30;99.90
7192;DHT22;3637;51.494;11.958;2022-10-16T02:35:15;15.40;99.90
7192;DHT22;3637;51.494;11.958;2022-10-16T02:38:18;15.30;99.90
7192;DHT22;3637;51.494;11.958;2022-10-16T02:41:21;15.50;99.90
7192;DHT22;3637;51.494;11.958;2022-10-16T02:44:25;15.20;99.90
7192;DHT22;3637;51.494;11.958;2022-10-16T02:47:27;15.30;99.90
7192;DHT22;3637;51.494;11.958;2022-10-16T02:50:28;15.20;99.90
7192;DHT22;3637;51.494;11.958;2022-10-16T02:53:30;15.20;99.90
7192;DHT22;3637;51.494;11.958;2022-10-16T02:56:32;15.20;99.90
7192;DHT22;3637;51.494;11.958;2022-10-16T02:59:36;15.10;99.90
7192;DHT22;3637;51.494;11.958;2022-10-16T03:02:38;15.10;99.90
7192;DHT22;3637;51.494;11.958;2022-10-16T03:05:39;15.10;99.90
7192;DHT22;3637;51.494;11.958;2022-10-16T03:08:41;15.10;99.90
7192;DHT22;3637;51.494;11.958;2022-10-16T03:11:43;15.00;99.90
7192;DHT22;3637;51.494;11.958;2022-10-16T03:14:46;15.00;99.90
7192;DHT22;3637;51.494;11.958;2022-10-16T03:17:48;15.10;99.90
7192;DHT22;3637;51.494;11.958;2022-10-16T03:20:50;14.90;99.90
7192;DHT22;3637;51.494;11.958;2022-10-16T03:23:52;14.90;99.90
7192;DHT22;3637;51.494;11.958;2022-10-16T03:26:54;14.90;99.90
7192;DHT22;3637;51.494;11.958;2022-10-16T03:29:57;14.90;99.90
7192;DHT22;3637;51.494;11.958;2022-10-16T03:32:59;14.80;99.90
7192;DHT22;3637;51.494;11.958;2022-10-16T03:36:01;14.80;99.90
7192;DHT22;3637;51.494;11.958;2022-10-16T03:39:03;14.70;99.90
7192;DHT22;3637;51.494;11.958;2022-10-16T03:42:05;14.70;99.90
7192;DHT22;3637;51.494;11.958;2022-10-16T03:45:09;14.80;99.90
7192;DHT22;3637;51.494;11.958;2022-10-16T03:48:11;14.70;99.90
7192;DHT22;3637;51.494;11.958;2022-10-16T03:51:13;14.70;99.90
7192;DHT22;3637;51.494;11.958;2022-10-16T03:54:15;14.70;99.90
7192;DHT22;3637;51.494;11.958;2022-10-16T03:57:17;15.00;99.90
7192;DHT22;3637;51.494;11.958;2022-10-16T04:00:20;14.60;99.90
7192;DHT22;3637;51.494;11.958;2022-10-16T04:03:22;14.70;99.90
7192;DHT22;3637;51.494;11.958;2022-10-16T04:06:24;14.60;99.90
7192;DHT22;3637;51.494;11.958;2022-10-16T04:09:29;14.60;99.90
7192;DHT22;3637;51.494;11.958;2022-10-16T04:12:31;14.60;99.90
7192;DHT22;3637;51.494;11.958;2022-10-16T04:15:34;14.70;99.90
7192;DHT22;3637;51.494;11.958;2022-10-16T04:18:36;14.50;99.90
7192;DHT22;3637;51.494;11.958;2022-10-16T04:21:38;14.60;99.90
7192;DHT22;3637;51.494;11.958;2022-10-16T04:24:40;14.60;99.90
7192;DHT22;3637;51.494;11.958;2022-10-16T04:27:42;14.50;99.90
7192;DHT22;3637;51.494;11.958;2022-10-16T04:30:45;14.50;99.90
7192;DHT22;3637;51.494;11.958;2022-10-16T04:33:47;14.50;99.90
7192;DHT22;3637;51.494;11.958;2022-10-16T04:36:49;14.50;99.90
7192;DHT22;3637;51.494;11.958;2022-10-16T04:39:51;14.50;99.90
7192;DHT22;3637;51.494;11.958;2022-10-16T04:42:53;14.50;99.90
7192;DHT22;3637;51.494;11.958;2022-10-16T04:45:57;14.50;99.90
7192;DHT22;3637;51.494;11.958;2022-10-16T04:48:58;14.50;99.90
7192;DHT22;3637;51.494;11.958;2022-10-16T04:52:00;14.40;99.90
7192;DHT22;3637;51.494;11.958;2022-10-16T04:55:03;14.50;99.90
7192;DHT22;3637;51.494;11.958;2022-10-16T04:58:05;14.50;99.90
7192;DHT22;3637;51.494;11.958;2022-10-16T05:01:09;14.50;99.90
7192;DHT22;3637;51.494;11.958;2022-10-16T05:04:11;14.40;99.90
7192;DHT22;3637;51.494;11.958;2022-10-16T05:07:12;14.40;99.90
7192;DHT22;3637;51.494;11.958;2022-10-16T05:10:15;14.40;99.90
7192;DHT22;3637;51.494;11.958;2022-10-16T05:13:16;14.50;99.90
7192;DHT22;3637;51.494;11.958;2022-10-16T05:16:20;14.40;99.90
7192;DHT22;3637;51.494;11.958;2022-10-16T05:19:22;14.50;99.90
7192;DHT22;3637;51.494;11.958;2022-10-16T05:22:23;14.50;99.90
7192;DHT22;3637;51.494;11.958;2022-10-16T05:25:25;14.50;99.90
7192;DHT22;3637;51.494;11.958;2022-10-16T05:28:28;14.40;99.90
7192;DHT22;3637;51.494;11.958;2022-10-16T05:31:32;14.50;99.90
7192;DHT22;3637;51.494;11.958;2022-10-16T05:34:34;14.60;99.90
7192;DHT22;3637;51.494;11.958;2022-10-16T05:37:36;14.50;99.90
7192;DHT22;3637;51.494;11.958;2022-10-16T05:40:38;14.70;99.90
7192;DHT22;3637;51.494;11.958;2022-10-16T05:43:40;14.60;99.90
7192;DHT22;3637;51.494;11.958;2022-10-16T05:46:43;14.60;99.90
7192;DHT22;3637;51.494;11.958;2022-10-16T05:49:45;14.60;99.90
7192;DHT22;3637;51.494;11.958;2022-10-16T05:52:47;14.60;99.90
7192;DHT22;3637;51.494;11.958;2022-10-16T05:55:52;14.60;99.90
7192;DHT22;3637;51.494;11.958;2022-10-16T05:58:54;14.60;99.90
7192;DHT22;3637;51.494;11.958;2022-10-16T06:01:57;14.50;99.90
7192;DHT22;3637;51.494;11.958;2022-10-16T06:04:59;14.70;99.90
7192;DHT22;3637;51.494;11.958;2022-10-16T06:08:01;14.60;99.90
7192;DHT22;3637;51.494;11.958;2022-10-16T06:11:04;14.70;99.90
7192;DHT22;3637;51.494;11.958;2022-10-16T06:14:07;14.70;99.90
7192;DHT22;3637;51.494;11.958;2022-10-16T06:17:11;14.70;99.90
7192;DHT22;3637;51.494;11.958;2022-10-16T06:20:13;14.80;99.90
7192;DHT22;3637;51.494;11.958;2022-10-16T06:23:15;14.80;99.90
7192;DHT22;3637;51.494;11.958;2022-10-16T06:26:18;14.90;99.90
7192;DHT22;3637;51.494;11.958;2022-10-16T06:29:20;14.80;99.90
7192;DHT22;3637;51.494;11.958;2022-10-16T06:32:23;14.80;99.90
7192;DHT22;3637;51.494;11.958;2022-10-16T06:35:25;14.80;99.90
7192;DHT22;3637;51.494;11.958;2022-10-16T06:38:27;14.90;99.90
7192;DHT22;3637;51.494;11.958;2022-10-16T06:41:29;14.80;99.90
7192;DHT22;3637;51.494;11.958;2022-10-16T06:44:31;14.90;99.90
7192;DHT22;3637;51.494;11.958;2022-10-16T06:47:34;14.90;99.90
7192;DHT22;3637;51.494;11.958;2022-10-16T06:50:36;14.90;99.90
7192;DHT22;3637;51.494;11.958;2022-10-16T06:53:41;15.00;99.90
7192;DHT22;3637;51.494;11.958;2022-10-16T06:56:43;15.00;99.90
7192;DHT22;3637;51.494;11.958;2022-10-16T06:59:45;15.00;99.90
7192;DHT22;3637;51.494;11.958;2022-10-16T07:02:49;15.00;99.90
7192;DHT22;3637;51.494;11.958;2022-10-16T07:05:51;15.10;99.90
7192;DHT22;3637;51.494;11.958;2022-10-16T07:08:53;15.10;99.90
7192;DHT22;3637;51.494;11.958;2022-10-16T07:11:55;15.10;99.90
7192;DHT22;3637;51.494;11.958;2022-10-16T07:14:57;15.20;99.90
7192;DHT22;3637;51.494;11.958;2022-10-16T07:18:00;15.20;99.90
7192;DHT22;3637;51.494;11.958;2022-10-16T07:21:04;15.30;99.90
7192;DHT22;3637;51.494;11.958;2022-10-16T07:24:10;15.40;99.90
7192;DHT22;3637;51.494;11.958;2022-10-16T07:27:13;15.50;99.90
7192;DHT22;3637;51.494;11.958;2022-10-16T07:30:16;15.50;99.90
7192;DHT22;3637;51.494;11.958;2022-10-16T07:33:19;15.50;99.90
7192;DHT22;3637;51.494;11.958;2022-10-16T07:36:21;15.60;99.90
7192;DHT22;3637;51.494;11.958;2022-10-16T07:39:23;15.60;99.90
7192;DHT22;3637;51.494;11.958;2022-10-16T07:42:26;15.70;99.90
7192;DHT22;3637;51.494;11.958;2022-10-16T07:45:28;15.70;99.90
7192;DHT22;3637;51.494;11.958;2022-10-16T07:48:33;15.90;99.90
7192;DHT22;3637;51.494;11.958;2022-10-16T07:51:35;15.80;99.90
7192;DHT22;3637;51.494;11.958;2022-10-16T07:54:38;15.90;99.90
7192;DHT22;3637;51.494;11.958;2022-10-16T07:57:40;15.90;99.90
7192;DHT22;3637;51.494;11.958;2022-10-16T08:00:42;16.00;99.90
7192;DHT22;3637;51.494;11.958;2022-10-16T08:03:47;16.00;99.90
7192;DHT22;3637;51.494;11.958;2022-10-16T08:06:49;16.10;99.90
7192;DHT22;3637;51.494;11.958;2022-10-16T08:09:51;16.20;99.90
7192;DHT22;3637;51.494;11.958;2022-10-16T08:12:53;16.30;99.90
7192;DHT22;3637;51.494;11.958;2022-10-16T08:15:55;16.30;99.90
7192;DHT22;3637;51.494;11.958;2022-10-16T08:18:59;16.40;99.90
7192;DHT22;3637;51.494;11.958;2022-10-16T08:22:01;16.40;99.90
7192;DHT22;3637;51.494;11.958;2022-10-16T08:25:03;16.60;99.90
7192;DHT22;3637;51.494;11.958;2022-10-16T08:28:05;16.60;99.90
7192;DHT22;3637;51.494;11.958;2022-10-16T08:31:09;16.70;99.90
7192;DHT22;3637;51.494;11.958;2022-10-16T08:34:12;16.70;99.90
7192;DHT22;3637;51.494;11.958;2022-10-16T08:37:14;16.70;99.90
7192;DHT22;3637;51.494;11.958;2022-10-16T08:40:18;16.80;99.90
7192;DHT22;3637;51.494;11.958;2022-10-16T08:43:34;16.80;99.90
7192;DHT22;3637;51.494;11.958;2022-10-16T08:46:49;16.90;99.90
7192;DHT22;3637;51.494;11.958;2022-10-16T08:49:59;16.90;99.90
7192;DHT22;3637;51.494;11.958;2022-10-16T08:53:04;16.90;99.90
7192;DHT22;3637;51.494;11.958;2022-10-16T08:56:07;16.90;99.90
7192;DHT22;3637;51.494;11.958;2022-10-16T08:59:10;16.90;99.90
7192;DHT22;3637;51.494;11.958;2022-10-16T09:02:24;17.00;99.90
7192;DHT22;3637;51.494;11.958;2022-10-16T09:05:52;17.10;99.90
7192;DHT22;3637;51.494;11.958;2022-10-16T09:12:36;17.20;99.90
7192;DHT22;3637;51.494;11.958;2022-10-16T09:15:42;17.30;99.90
7192;DHT22;3637;51.494;11.958;2022-10-16T09:18:54;17.30;99.90
7192;DHT22;3637;51.494;11.958;2022-10-16T09:22:02;17.40;99.90
7192;DHT22;3637;51.494;11.958;2022-10-16T09:25:12;17.50;99.90
7192;DHT22;3637;51.494;11.958;2022-10-16T09:28:16;17.50;99.90
7192;DHT22;3637;51.494;11.958;2022-10-16T09:31:19;17.50;99.90
7192;DHT22;3637;51.494;11.958;2022-10-16T09:34:30;17.70;99.90
7192;DHT22;3637;51.494;11.958;2022-10-16T09:37:34;17.80;99.90
7192;DHT22;3637;51.494;11.958;2022-10-16T09:40:37;17.90;99.90
7192;DHT22;3637;51.494;11.958;2022-10-16T09:43:41;18.10;99.90
7192;DHT22;3637;51.494;11.958;2022-10-16T09:46:43;17.90;99.90
7192;DHT22;3637;51.494;11.958;2022-10-16T09:49:51;17.80;99.90
7192;DHT22;3637;51.494;11.958;2022-10-16T09:53:06;17.80;99.90
7192;DHT22;3637;51.494;11.958;2022-10-16T09:56:11;17.90;99.90
7192;DHT22;3637;51.494;11.958;2022-10-16T09:59:16;17.90;99.90
7192;DHT22;3637;51.494;11.958;2022-10-16T10:02:20;18.00;99.90
7192;DHT22;3637;51.494;11.958;2022-10-16T10:05:26;18.10;99.90
7192;DHT22;3637;51.494;11.958;2022-10-16T10:08:30;18.10;99.90
7192;DHT22;3637;51.494;11.958;2022-10-16T10:11:53;18.20;99.90
7192;DHT22;3637;51.494;11.958;2022-10-16T10:14:56;18.20;99.90
7192;DHT22;3637;51.494;11.958;2022-10-16T10:17:58;18.20;99.90
7192;DHT22;3637;51.494;11.958;2022-10-16T10:21:02;18.10;99.90
7192;DHT22;3637;51.494;11.958;2022-10-16T10:24:11;18.40;99.90
7192;DHT22;3637;51.494;11.958;2022-10-16T10:27:16;18.30;99.90
7192;DHT22;3637;51.494;11.958;2022-10-16T10:30:22;18.40;99.90
7192;DHT22;3637;51.494;11.958;2022-10-16T10:33:31;18.50;99.90
7192;DHT22;3637;51.494;11.958;2022-10-16T10:36:38;18.60;99.90
7192;DHT22;3637;51.494;11.958;2022-10-16T10:39:45;18.60;99.90
7192;DHT22;3637;51.494;11.958;2022-10-16T10:42:53;18.60;99.90
7192;DHT22;3637;51.494;11.958;2022-10-16T10:46:03;18.60;99.90
7192;DHT22;3637;51.494;11.958;2022-10-16T10:52:43;18.60;99.90
7192;DHT22;3637;51.494;11.958;2022-10-16T10:55:54;18.70;99.90
7192;DHT22;3637;51.494;11.958;2022-10-16T11:02:37;18.70;99.90
7192;DHT22;3637;51.494;11.958;2022-10-16T11:05:41;18.70;99.90
7192;DHT22;3637;51.494;11.958;2022-10-16T11:08:48;18.60;99.90
7192;DHT22;3637;51.494;11.958;2022-10-16T11:11:56;18.60;99.90
7192;DHT22;3637;51.494;11.958;2022-10-16T11:15:03;18.60;99.90
7192;DHT22;3637;51.494;11.958;2022-10-16T11:18:10;18.80;99.90
7192;DHT22;3637;51.494;11.958;2022-10-16T11:21:14;18.70;99.90
7192;DHT22;3637;51.494;11.958;2022-10-16T11:24:21;18.60;99.90
7192;DHT22;3637;51.494;11.958;2022-10-16T11:27:34;18.60;99.90
7192;DHT22;3637;51.494;11.958;2022-10-16T11:30:42;18.80;99.90
7192;DHT22;3637;51.494;11.958;2022-10-16T11:33:49;18.70;99.90
7192;DHT22;3637;51.494;11.958;2022-10-16T11:36:56;18.60;99.90
7192;DHT22;3637;51.494;11.958;2022-10-16T11:40:05;18.70;99.90
7192;DHT22;3637;51.494;11.958;2022-10-16T11:43:15;18.70;99.90
7192;DHT22;3637;51.494;11.958;2022-10-16T11:46:21;18.70;99.90
7192;DHT22;3637;51.494;11.958;2022-10-16T11:49:26;18.70;99.90
7192;DHT22;3637;51.494;11.958;2022-10-16T11:52:36;18.80;99.90
7192;DHT22;3637;51.494;11.958;2022-10-16T11:55:42;18.70;99.90
7192;DHT22;3637;51.494;11.958;2022-10-16T11:58:53;18.80;99.90
7192;DHT22;3637;51.494;11.958;2022-10-16T12:02:07;19.00;99.90
7192;DHT22;3637;51.494;11.958;2022-10-16T12:05:21;19.20;99.90
7192;DHT22;3637;51.494;11.958;2022-10-16T12:08:24;19.40;99.90
7192;DHT22;3637;51.494;11.958;2022-10-16T12:11:34;19.40;99.90
7192;DHT22;3637;51.494;11.958;2022-10-16T12:14:39;19.40;99.90
7192;DHT22;3637;51.494;11.958;2022-10-16T12:17:41;19.40;99.70
7192;DHT22;3637;51.494;11.958;2022-10-16T12:20:54;19.30;99.60
7192;DHT22;3637;51.494;11.958;2022-10-16T12:24:03;19.20;99.50
7192;DHT22;3637;51.494;11.958;2022-10-16T12:27:17;19.30;99.50
7192;DHT22;3637;51.494;11.958;2022-10-16T12:30:25;19.50;99.50
7192;DHT22;3637;51.494;11.958;2022-10-16T12:33:29;19.30;99.70
7192;DHT22;3637;51.494;11.958;2022-10-16T12:36:33;19.20;99.60
7192;DHT22;3637;51.494;11.958;2022-10-16T12:39:36;19.10;99.70
7192;DHT22;3637;51.494;11.958;2022-10-16T12:42:38;19.20;99.90
7192;DHT22;3637;51.494;11.958;2022-10-16T12:45:41;19.30;99.50
7192;DHT22;3637;51.494;11.958;2022-10-16T12:48:44;19.40;98.60
7192;DHT22;3637;51.494;11.958;2022-10-16T12:51:48;19.40;98.10
7192;DHT22;3637;51.494;11.958;2022-10-16T12:54:51;19.40;97.00
7192;DHT22;3637;51.494;11.958;2022-10-16T12:58:04;19.60;96.80
7192;DHT22;3637;51.494;11.958;2022-10-16T13:01:21;19.60;96.70
7192;DHT22;3637;51.494;11.958;2022-10-16T13:04:54;19.60;96.60
7192;DHT22;3637;51.494;11.958;2022-10-16T13:08:16;19.50;96.30
7192;DHT22;3637;51.494;11.958;2022-10-16T13:11:27;19.50;95.90
7192;DHT22;3637;51.494;11.958;2022-10-16T13:14:48;19.50;96.00
7192;DHT22;3637;51.494;11.958;2022-10-16T13:18:01;19.50;96.20
7192;DHT22;3637;51.494;11.958;2022-10-16T13:21:17;19.40;96.40
7192;DHT22;3637;51.494;11.958;2022-10-16T13:24:31;19.40;97.00
7192;DHT22;3637;51.494;11.958;2022-10-16T13:27:46;19.30;97.00
7192;DHT22;3637;51.494;11.958;2022-10-16T13:30:54;19.30;96.40
7192;DHT22;3637;51.494;11.958;2022-10-16T13:33:59;19.20;96.30
7192;DHT22;3637;51.494;11.958;2022-10-16T13:37:02;19.20;96.50
7192;DHT22;3637;51.494;11.958;2022-10-16T13:40:17;19.10;96.80
7192;DHT22;3637;51.494;11.958;2022-10-16T13:43:22;19.10;96.90
7192;DHT22;3637;51.494;11.958;2022-10-16T13:46:25;19.00;97.00
7192;DHT22;3637;51.494;11.958;2022-10-16T13:49:29;19.10;97.20
7192;DHT22;3637;51.494;11.958;2022-10-16T13:52:31;19.00;97.40
7192;DHT22;3637;51.494;11.958;2022-10-16T13:55:33;19.00;97.60
7192;DHT22;3637;51.494;11.958;2022-10-16T13:58:35;18.90;97.60
7192;DHT22;3637;51.494;11.958;2022-10-16T14:01:42;19.00;97.60
7192;DHT22;3637;51.494;11.958;2022-10-16T14:04:46;19.00;97.80
7192;DHT22;3637;51.494;11.958;2022-10-16T14:07:50;19.00;97.90
7192;DHT22;3637;51.494;11.958;2022-10-16T14:10:55;19.00;97.90
7192;DHT22;3637;51.494;11.958;2022-10-16T14:13:57;19.10;98.20
7192;DHT22;3637;51.494;11.958;2022-10-16T14:16:59;19.00;98.10
7192;DHT22;3637;51.494;11.958;2022-10-16T14:20:05;19.00;98.20
7192;DHT22;3637;51.494;11.958;2022-10-16T14:23:22;19.00;98.20
7192;DHT22;3637;51.494;11.958;2022-10-16T14:26:27;19.00;98.20
7192;DHT22;3637;51.494;11.958;2022-10-16T14:29:30;19.10;98.20
7192;DHT22;3637;51.494;11.958;2022-10-16T14:32:32;19.10;98.20
7192;DHT22;3637;51.494;11.958;2022-10-16T14:35:37;19.10;97.90
7192;DHT22;3637;51.494;11.958;2022-10-16T14:38:41;19.10;97.80
7192;DHT22;3637;51.494;11.958;2022-10-16T14:41:46;19.20;97.60
7192;DHT22;3637;51.494;11.958;2022-10-16T14:44:48;19.20;97.10
7192;DHT22;3637;51.494;11.958;2022-10-16T14:47:55;19.40;97.30
7192;DHT22;3637;51.494;11.958;2022-10-16T14:50:59;19.20;96.80
7192;DHT22;3637;51.494;11.958;2022-10-16T14:54:01;19.30;97.10
7192;DHT22;3637;51.494;11.958;2022-10-16T14:57:04;19.30;97.20
7192;DHT22;3637;51.494;11.958;2022-10-16T15:00:20;19.30;96.80
7192;DHT22;3637;51.494;11.958;2022-10-16T15:03:22;19.30;96.70
7192;DHT22;3637;51.494;11.958;2022-10-16T15:06:29;19.30;96.40
7192;DHT22;3637;51.494;11.958;2022-10-16T15:09:31;19.40;96.20
7192;DHT22;3637;51.494;11.958;2022-10-16T15:12:33;19.30;96.50
7192;DHT22;3637;51.494;11.958;2022-10-16T15:15:36;19.30;96.30
7192;DHT22;3637;51.494;11.958;2022-10-16T15:18:38;19.30;96.50
7192;DHT22;3637;51.494;11.958;2022-10-16T15:21:42;19.20;96.80
7192;DHT22;3637;51.494;11.958;2022-10-16T15:24:44;19.20;96.80
7192;DHT22;3637;51.494;11.958;2022-10-16T15:27:46;19.20;96.70
7192;DHT22;3637;51.494;11.958;2022-10-16T15:30:50;19.10;96.60
7192;DHT22;3637;51.494;11.958;2022-10-16T15:33:53;19.10;96.70
7192;DHT22;3637;51.494;11.958;2022-10-16T15:37:02;19.00;97.00
7192;DHT22;3637;51.494;11.958;2022-10-16T15:40:05;18.80;97.20
7192;DHT22;3637;51.494;11.958;2022-10-16T15:43:08;18.90;97.50
7192;DHT22;3637;51.494;11.958;2022-10-16T15:46:11;18.80;97.60
7192;DHT22;3637;51.494;11.958;2022-10-16T15:49:15;18.80;97.90
7192;DHT22;3637;51.494;11.958;2022-10-16T15:52:18;18.70;98.00
7192;DHT22;3637;51.494;11.958;2022-10-16T15:55:20;18.80;98.30
7192;DHT22;3637;51.494;11.958;2022-10-16T15:58:22;18.60;98.60
7192;DHT22;3637;51.494;11.958;2022-10-16T16:01:24;18.60;98.70
7192;DHT22;3637;51.494;11.958;2022-10-16T16:04:30;18.60;98.90
7192;DHT22;3637;51.494;11.958;2022-10-16T16:07:34;18.50;99.40
7192;DHT22;3637;51.494;11.958;2022-10-16T16:10:36;18.40;99.50
7192;DHT22;3637;51.494;11.958;2022-10-16T16:13:38;18.40;99.70
7192;DHT22;3637;51.494;11.958;2022-10-16T16:16:40;18.30;99.80
7192;DHT22;3637;51.494;11.958;2022-10-16T16:19:43;18.30;99.90
7192;DHT22;3637;51.494;11.958;2022-10-16T16:22:46;18.30;99.90
7192;DHT22;3637;51.494;11.958;2022-10-16T16:26:03;18.20;99.90
7192;DHT22;3637;51.494;11.958;2022-10-16T16:29:05;18.10;99.90
7192;DHT22;3637;51.494;11.958;2022-10-16T16:32:07;18.10;99.90
7192;DHT22;3637;51.494;11.958;2022-10-16T16:35:09;18.00;99.90
7192;DHT22;3637;51.494;11.958;2022-10-16T16:38:13;18.00;99.90
7192;DHT22;3637;51.494;11.958;2022-10-16T16:41:16;18.00;99.90
7192;DHT22;3637;51.494;11.958;2022-10-16T16:44:18;17.90;99.90
7192;DHT22;3637;51.494;11.958;2022-10-16T16:47:20;17.90;99.90
7192;DHT22;3637;51.494;11.958;2022-10-16T16:50:22;17.90;99.90
7192;DHT22;3637;51.494;11.958;2022-10-16T16:53:25;17.80;99.90
7192;DHT22;3637;51.494;11.958;2022-10-16T16:56:27;17.80;99.90
7192;DHT22;3637;51.494;11.958;2022-10-16T16:59:30;17.80;99.90
7192;DHT22;3637;51.494;11.958;2022-10-16T17:02:33;17.70;99.90
7192;DHT22;3637;51.494;11.958;2022-10-16T17:05:34;17.70;99.90
7192;DHT22;3637;51.494;11.958;2022-10-16T17:08:38;17.60;99.90
7192;DHT22;3637;51.494;11.958;2022-10-16T17:11:41;17.60;99.90
7192;DHT22;3637;51.494;11.958;2022-10-16T17:14:43;17.60;99.90
7192;DHT22;3637;51.494;11.958;2022-10-16T17:17:45;17.50;99.90
7192;DHT22;3637;51.494;11.958;2022-10-16T17:20:47;17.50;99.90
7192;DHT22;3637;51.494;11.958;2022-10-16T17:23:52;17.40;99.90
7192;DHT22;3637;51.494;11.958;2022-10-16T17:26:54;17.40;99.90
7192;DHT22;3637;51.494;11.958;2022-10-16T17:29:56;17.30;99.90
7192;DHT22;3637;51.494;11.958;2022-10-16T17:32:57;17.30;99.90
7192;DHT22;3637;51.494;11.958;2022-10-16T17:36:00;17.20;99.90
7192;DHT22;3637;51.494;11.958;2022-10-16T17:39:05;17.20;99.90
7192;DHT22;3637;51.494;11.958;2022-10-16T17:42:07;17.20;99.90
7192;DHT22;3637;51.494;11.958;2022-10-16T17:45:09;17.20;99.90
7192;DHT22;3637;51.494;11.958;2022-10-16T17:48:11;17.10;99.90
7192;DHT22;3637;51.494;11.958;2022-10-16T17:51:16;17.00;99.90
7192;DHT22;3637;51.494;11.958;2022-10-16T17:54:20;17.00;99.90
7192;DHT22;3637;51.494;11.958;2022-10-16T17:57:22;17.00;99.90
7192;DHT22;3637;51.494;11.958;2022-10-16T18:00:24;16.90;99.90
7192;DHT22;3637;51.494;11.958;2022-10-16T18:03:29;17.10;99.90
7192;DHT22;3637;51.494;11.958;2022-10-16T18:06:31;16.80;99.90
7192;DHT22;3637;51.494;11.958;2022-10-16T18:09:35;16.70;99.90
7192;DHT22;3637;51.494;11.958;2022-10-16T18:12:37;16.70;99.90
7192;DHT22;3637;51.494;11.958;2022-10-16T18:15:39;16.60;99.90
7192;DHT22;3637;51.494;11.958;2022-10-16T18:18:42;16.60;99.90
7192;DHT22;3637;51.494;11.958;2022-10-16T18:21:44;16.60;99.90
7192;DHT22;3637;51.494;11.958;2022-10-16T18:24:47;16.50;99.90
7192;DHT22;3637;51.494;11.958;2022-10-16T18:27:49;16.50;99.90
7192;DHT22;3637;51.494;11.958;2022-10-16T18:30:54;16.50;99.90
7192;DHT22;3637;51.494;11.958;2022-10-16T18:33:56;16.50;99.90
7192;DHT22;3637;51.494;11.958;2022-10-16T18:36:58;16.40;99.90
7192;DHT22;3637;51.494;11.958;2022-10-16T18:40:02;16.40;99.90
7192;DHT22;3637;51.494;11.958;2022-10-16T18:43:04;16.40;99.90
7192;DHT22;3637;51.494;11.958;2022-10-16T18:46:08;16.40;99.90
7192;DHT22;3637;51.494;11.958;2022-10-16T18:49:10;16.30;99.90
7192;DHT22;3637;51.494;11.958;2022-10-16T18:52:12;16.30;99.90
7192;DHT22;3637;51.494;11.958;2022-10-16T18:55:16;16.20;99.90
7192;DHT22;3637;51.494;11.958;2022-10-16T18:58:18;16.20;99.90
7192;DHT22;3637;51.494;11.958;2022-10-16T19:01:22;16.10;99.90
7192;DHT22;3637;51.494;11.958;2022-10-16T19:04:24;16.10;99.90
7192;DHT22;3637;51.494;11.958;2022-10-16T19:07:29;16.10;99.90
7192;DHT22;3637;51.494;11.958;2022-10-16T19:10:35;16.10;99.90
7192;DHT22;3637;51.494;11.958;2022-10-16T19:13:37;16.10;99.90
7192;DHT22;3637;51.494;11.958;2022-10-16T19:16:39;16.10;99.90
7192;DHT22;3637;51.494;11.958;2022-10-16T19:19:42;16.10;99.90
7192;DHT22;3637;51.494;11.958;2022-10-16T19:22:44;16.00;99.90
7192;DHT22;3637;51.494;11.958;2022-10-16T19:26:00;16.10;99.90
7192;DHT22;3637;51.494;11.958;2022-10-16T19:29:03;16.00;99.90
7192;DHT22;3637;51.494;11.958;2022-10-16T19:32:06;16.00;99.90
7192;DHT22;3637;51.494;11.958;2022-10-16T19:35:08;16.00;99.90
7192;DHT22;3637;51.494;11.958;2022-10-16T19:38:10;16.10;99.90
7192;DHT22;3637;51.494;11.958;2022-10-16T19:41:15;16.00;99.90
7192;DHT22;3637;51.494;11.958;2022-10-16T19:44:18;16.00;99.90
7192;DHT22;3637;51.494;11.958;2022-10-16T19:47:20;16.00;99.90
7192;DHT22;3637;51.494;11.958;2022-10-16T19:50:21;16.00;99.90
7192;DHT22;3637;51.494;11.958;2022-10-16T19:53:24;16.00;99.90